Time;durP1;ratioP1;P1;durP2;ratioP2;P2;SDS_P1;SDS_P2;PMS_P1;PMS_P2;Temp;Humidity;BMP_temperature;BMP_pressure;BME280_temperature;BME280_humidity;BME280_pressure;Samples;Min_cycle;Max_cycle;Signal;HPM_P1;HPM_P2
2022/01/15 00:00:28;;;;;;;13.90;4.07;;;2.40;99.90;;;;;;5054460;28;20554;-84
2022/01/15 00:02:54;;;;;;;11.70;4.83;;;2.50;99.90;;;;;;5053854;28;20530;-90
2022/01/15 00:05:20;;;;;;;12.00;5.40;;;2.60;99.90;;;;;;5036491;28;20927;-88
2022/01/15 00:07:49;;;;;;;17.17;5.63;;;2.60;99.90;;;;;;5054076;28;20424;-92
2022/01/15 00:10:16;;;;;;;9.73;4.27;;;2.60;99.90;;;;;;5055267;28;20408;-86
2022/01/15 00:12:42;;;;;;;14.40;4.83;;;2.50;99.90;;;;;;5054646;28;20475;-90
2022/01/15 00:15:16;;;;;;;12.17;4.10;;;2.50;99.90;;;;;;5054449;28;20408;-90
2022/01/15 00:18:05;;;;;;;10.37;4.27;;;2.50;99.90;;;;;;5052334;28;20176;-90
2022/01/15 00:20:31;;;;;;;15.70;4.43;;;2.50;99.90;;;;;;5056007;28;20422;-88
2022/01/15 00:22:59;;;;;;;9.37;4.23;;;2.40;99.90;;;;;;5073635;28;20762;-86
2022/01/15 00:25:28;;;;;;;10.93;4.03;;;2.40;99.90;;;;;;5074296;28;20464;-88
2022/01/15 00:27:54;;;;;;;10.10;5.00;;;2.50;99.90;;;;;;5073607;28;20454;-91
2022/01/15 00:30:20;;;;;;;17.47;5.27;;;2.60;99.90;;;;;;5073245;28;20900;-85
2022/01/15 00:32:47;;;;;;;18.77;5.60;;;2.70;99.90;;;;;;5054714;28;20563;-90
2022/01/15 00:35:15;;;;;;;11.47;4.37;;;2.70;99.90;;;;;;5074566;28;20411;-87
2022/01/15 00:37:41;;;;;;;14.00;4.20;;;2.80;99.90;;;;;;5055988;28;20472;-88
2022/01/15 00:40:10;;;;;;;9.57;4.27;;;2.80;99.90;;;;;;5056101;28;20429;-91
2022/01/15 00:42:39;;;;;;;17.70;5.63;;;2.70;99.90;;;;;;5073575;28;20410;-90
2022/01/15 00:45:09;;;;;;;15.93;4.53;;;2.70;99.90;;;;;;5073476;28;20546;-86
2022/01/15 00:47:34;;;;;;;16.93;5.60;;;2.60;99.90;;;;;;5055253;28;20449;-88
2022/01/15 00:50:01;;;;;;;17.83;3.73;;;2.60;99.90;;;;;;5055367;28;20464;-90
2022/01/15 00:52:27;;;;;;;18.90;4.70;;;2.50;99.90;;;;;;5073896;28;20158;-92
2022/01/15 00:54:54;;;;;;;10.73;4.00;;;2.40;99.90;;;;;;5073958;28;20441;-92
2022/01/15 00:57:20;;;;;;;13.83;5.37;;;2.20;99.90;;;;;;5055826;28;20177;-92
2022/01/15 00:59:48;;;;;;;16.60;5.30;;;2.10;99.90;;;;;;5055088;28;20505;-90
2022/01/15 01:02:14;;;;;;;17.10;4.87;;;1.90;99.90;;;;;;5073086;28;20425;-83
2022/01/15 01:04:40;;;;;;;11.80;4.20;;;2.00;99.90;;;;;;5073004;28;20484;-86
2022/01/15 01:07:09;;;;;;;18.17;5.93;;;2.00;99.90;;;;;;5073410;28;20228;-84
2022/01/15 01:12:56;;;;;;;10.87;4.30;;;2.00;99.90;;;;;;5032551;28;20908;-92
2022/01/15 01:21:09;;;;;;;13.43;5.03;;;2.00;99.90;;;;;;5073869;28;20461;-91
2022/01/15 01:23:35;;;;;;;15.27;5.13;;;1.90;99.90;;;;;;5055574;28;20907;-92
2022/01/15 01:26:09;;;;;;;10.80;3.23;;;1.80;99.90;;;;;;5077428;28;20467;-92
2022/01/15 01:28:43;;;;;;;10.17;3.30;;;1.90;99.90;;;;;;5077313;28;20244;-92
2022/01/15 01:31:26;;;;;;;13.90;3.57;;;1.80;99.90;;;;;;5077927;28;20413;-93
2022/01/15 01:33:56;;;;;;;11.43;3.73;;;1.80;99.90;;;;;;5078510;28;20407;-93
2022/01/15 01:36:40;;;;;;;15.67;4.07;;;1.80;99.90;;;;;;5078246;28;20465;-91
2022/01/15 01:39:12;;;;;;;14.00;4.90;;;1.70;99.90;;;;;;5047624;28;20416;-89
2022/01/15 01:41:41;;;;;;;9.13;3.80;;;1.80;99.90;;;;;;5048566;28;20952;-85
2022/01/15 01:44:09;;;;;;;15.53;3.17;;;1.70;99.90;;;;;;5039709;28;20489;-92
2022/01/15 01:46:42;;;;;;;8.33;3.23;;;1.70;99.90;;;;;;5037418;28;21080;-87
2022/01/15 01:49:12;;;;;;;13.57;3.90;;;1.80;99.90;;;;;;5036217;28;20397;-92
2022/01/15 01:51:45;;;;;;;10.33;3.73;;;1.80;99.90;;;;;;5018844;28;20515;-90
2022/01/15 01:54:13;;;;;;;9.60;3.40;;;1.80;99.90;;;;;;5036623;28;20500;-90
2022/01/15 01:56:39;;;;;;;8.40;2.63;;;1.90;99.90;;;;;;5036598;28;20441;-92
2022/01/15 01:59:06;;;;;;;17.27;3.87;;;1.90;99.90;;;;;;5019016;28;20417;-88
2022/01/15 02:01:32;;;;;;;12.67;3.57;;;1.90;99.90;;;;;;5036362;28;20913;-93
2022/01/15 02:03:58;;;;;;;22.23;5.73;;;2.00;99.90;;;;;;5036001;28;20415;-92
2022/01/15 02:06:24;;;;;;;9.07;3.50;;;2.20;99.90;;;;;;5036183;28;20467;-93
2022/01/15 02:08:51;;;;;;;12.87;3.67;;;2.20;99.90;;;;;;5036010;28;20418;-92
2022/01/15 02:11:17;;;;;;;15.37;4.07;;;2.20;99.90;;;;;;5036221;28;20175;-90
2022/01/15 02:13:45;;;;;;;13.90;4.33;;;2.30;99.90;;;;;;5036326;28;20412;-90
2022/01/15 02:16:12;;;;;;;16.17;4.17;;;2.40;99.90;;;;;;5036279;28;20471;-92
2022/01/15 02:18:38;;;;;;;8.93;2.03;;;2.40;99.90;;;;;;5035543;28;20754;-90
2022/01/15 02:23:46;;;;;;;16.03;4.23;;;2.50;99.90;;;;;;5036469;28;20421;-89
2022/01/15 02:26:15;;;;;;;12.80;3.53;;;2.60;99.90;;;;;;5018243;28;20532;-87
2022/01/15 02:28:51;;;;;;;18.47;4.20;;;2.60;99.90;;;;;;5049827;28;20523;-91
2022/01/15 02:31:19;;;;;;;10.37;4.70;;;2.40;99.90;;;;;;5056040;28;20411;-91
2022/01/15 02:33:46;;;;;;;10.60;3.27;;;2.40;99.90;;;;;;5055452;28;20466;-91
2022/01/15 02:36:14;;;;;;;14.97;3.23;;;2.50;99.90;;;;;;5038049;28;20452;-92
2022/01/15 02:38:41;;;;;;;14.77;4.50;;;2.40;99.90;;;;;;5057096;28;20452;-93
2022/01/15 02:41:06;;;;;;;14.60;4.00;;;2.30;99.90;;;;;;5058050;28;20410;-92
2022/01/15 02:43:32;;;;;;;15.13;4.93;;;2.30;99.90;;;;;;5056330;28;20497;-90
2022/01/15 02:46:08;;;;;;;8.40;3.47;;;2.40;99.90;;;;;;5056661;28;20209;-90
2022/01/15 02:48:36;;;;;;;10.90;3.40;;;2.40;99.90;;;;;;5049061;28;20418;-88
2022/01/15 02:51:12;;;;;;;11.87;4.30;;;2.40;99.90;;;;;;5055480;28;20470;-92
2022/01/15 02:53:41;;;;;;;13.33;3.10;;;2.50;99.90;;;;;;5038108;28;20492;-92
2022/01/15 02:56:07;;;;;;;12.40;3.20;;;2.50;99.90;;;;;;5055611;28;20416;-94
2022/01/15 02:58:33;;;;;;;11.00;2.60;;;2.60;99.90;;;;;;5055665;28;20418;-89
2022/01/15 03:00:58;;;;;;;12.00;3.50;;;2.50;99.90;;;;;;5055180;28;20192;-90
2022/01/15 03:03:24;;;;;;;10.07;4.17;;;2.50;99.90;;;;;;5055211;28;20236;-92
2022/01/15 03:05:49;;;;;;;13.97;4.30;;;2.60;99.90;;;;;;5055055;28;20201;-91
2022/01/15 03:08:15;;;;;;;12.80;3.37;;;2.60;99.90;;;;;;5054978;28;20251;-89
2022/01/15 03:10:43;;;;;;;18.87;4.17;;;2.70;99.90;;;;;;5055359;28;20196;-93
2022/01/15 03:13:13;;;;;;;10.57;2.50;;;2.70;99.90;;;;;;5055287;28;20173;-82
2022/01/15 03:15:40;;;;;;;7.33;2.73;;;2.60;99.90;;;;;;5055287;28;20444;-87
2022/01/15 03:18:07;;;;;;;9.57;3.80;;;2.60;99.90;;;;;;5054808;28;20416;-91
2022/01/15 03:20:32;;;;;;;7.93;2.10;;;2.70;99.90;;;;;;5055057;28;20550;-91
2022/01/15 03:22:58;;;;;;;14.63;3.50;;;2.60;99.90;;;;;;5055115;28;20458;-93
2022/01/15 03:25:24;;;;;;;8.83;2.77;;;2.50;99.90;;;;;;5037375;28;20236;-86
2022/01/15 03:27:49;;;;;;;8.43;3.00;;;2.60;99.90;;;;;;5054779;28;20476;-92
2022/01/15 03:30:15;;;;;;;15.20;3.80;;;2.50;99.90;;;;;;5054926;28;20177;-90
2022/01/15 03:32:43;;;;;;;13.47;4.13;;;2.60;99.90;;;;;;5054801;28;20594;-91
2022/01/15 03:35:15;;;;;;;11.10;4.20;;;2.60;99.90;;;;;;5054580;28;20158;-85
2022/01/15 03:37:41;;;;;;;12.57;3.87;;;2.70;99.90;;;;;;5054382;28;20510;-89
2022/01/15 03:40:09;;;;;;;7.97;3.30;;;2.70;99.90;;;;;;5054255;28;20495;-89
2022/01/15 03:42:35;;;;;;;13.00;3.33;;;2.60;99.90;;;;;;5054648;28;20404;-89
2022/01/15 03:45:01;;;;;;;12.10;3.07;;;2.60;99.90;;;;;;5054620;28;20539;-91
2022/01/15 03:47:26;;;;;;;8.07;2.77;;;2.60;99.90;;;;;;5053342;28;20428;-89
2022/01/15 03:49:52;;;;;;;9.30;3.40;;;2.60;99.90;;;;;;5036102;28;20270;-91
2022/01/15 03:52:17;;;;;;;12.60;4.30;;;2.60;99.90;;;;;;5054316;28;20169;-90
2022/01/15 03:54:43;;;;;;;9.00;3.23;;;2.60;99.90;;;;;;5054070;28;20640;-86
2022/01/15 03:57:08;;;;;;;13.40;3.77;;;2.50;99.90;;;;;;5053936;28;20169;-86
2022/01/15 03:59:34;;;;;;;7.13;2.67;;;2.50;99.90;;;;;;5054100;28;20228;-91
2022/01/15 04:02:03;;;;;;;6.93;3.13;;;2.50;99.90;;;;;;5053453;28;20537;-91
2022/01/15 04:04:29;;;;;;;6.83;3.47;;;2.50;99.90;;;;;;5054022;28;20168;-86
2022/01/15 04:06:54;;;;;;;12.93;2.43;;;2.50;99.90;;;;;;5054127;28;20470;-91
2022/01/15 04:09:20;;;;;;;11.43;2.73;;;2.50;99.90;;;;;;5036761;28;20170;-92
2022/01/15 04:11:48;;;;;;;8.20;3.40;;;2.40;99.90;;;;;;5055704;28;20173;-91
2022/01/15 04:14:14;;;;;;;15.00;3.50;;;2.50;99.90;;;;;;5055143;28;20254;-92
2022/01/15 04:16:40;;;;;;;15.67;3.43;;;2.60;99.90;;;;;;5053304;28;20454;-92
2022/01/15 04:19:07;;;;;;;17.67;3.53;;;2.60;99.90;;;;;;5054404;28;20198;-92
2022/01/15 04:21:34;;;;;;;11.53;3.23;;;2.50;99.90;;;;;;5055071;28;20158;-91
2022/01/15 04:24:00;;;;;;;11.40;2.30;;;2.30;99.90;;;;;;5037258;28;20935;-89
2022/01/15 04:26:27;;;;;;;9.03;2.73;;;2.20;99.90;;;;;;5054066;28;20464;-92
2022/01/15 04:28:55;;;;;;;6.07;2.50;;;2.20;99.90;;;;;;5053952;28;20410;-83
2022/01/15 04:31:21;;;;;;;13.30;2.90;;;1.90;99.90;;;;;;5054056;28;20423;-85
2022/01/15 04:33:47;;;;;;;8.60;2.20;;;1.90;99.90;;;;;;5053885;28;20415;-91
2022/01/15 04:36:12;;;;;;;8.13;2.60;;;1.90;99.90;;;;;;5057489;28;20456;-81
2022/01/15 04:38:42;;;;;;;12.80;3.90;;;1.80;99.90;;;;;;5073523;28;20697;-92
2022/01/15 04:41:08;;;;;;;7.30;3.20;;;1.80;99.90;;;;;;5073812;28;20165;-90
2022/01/15 04:43:35;;;;;;;8.33;3.80;;;1.80;99.90;;;;;;5056142;28;20411;-87
2022/01/15 04:46:01;;;;;;;10.23;2.77;;;1.80;99.90;;;;;;5073418;28;20976;-90
2022/01/15 04:48:26;;;;;;;11.30;3.60;;;1.60;99.90;;;;;;5073377;28;20403;-92
2022/01/15 04:50:52;;;;;;;6.60;2.70;;;1.60;99.90;;;;;;5073811;28;20419;-89
2022/01/15 04:53:18;;;;;;;5.93;2.80;;;1.50;99.90;;;;;;5062693;28;20181;-89
2022/01/15 04:55:44;;;;;;;6.07;2.50;;;1.70;99.90;;;;;;5035313;28;20664;-91
2022/01/15 04:58:09;;;;;;;12.00;4.10;;;1.70;99.90;;;;;;5053589;28;20408;-93
2022/01/15 05:00:35;;;;;;;9.00;3.30;;;1.60;99.90;;;;;;5056696;28;20166;-91
2022/01/15 05:03:02;;;;;;;10.10;2.90;;;1.60;99.90;;;;;;5057218;28;20652;-89
2022/01/15 05:05:28;;;;;;;19.17;4.70;;;1.70;99.90;;;;;;5039483;28;20459;-91
2022/01/15 05:07:54;;;;;;;12.63;2.37;;;1.70;99.90;;;;;;5058512;28;20424;-88
2022/01/15 05:10:23;;;;;;;6.93;2.70;;;1.60;99.90;;;;;;5058165;28;20451;-92
2022/01/15 05:12:50;;;;;;;8.70;2.57;;;1.60;99.90;;;;;;5042136;28;20474;-91
2022/01/15 05:15:17;;;;;;;9.40;3.93;;;1.60;99.90;;;;;;5036780;28;20421;-89
2022/01/15 05:17:44;;;;;;;11.87;4.40;;;1.60;99.90;;;;;;5038470;28;20436;-91
2022/01/15 05:20:11;;;;;;;13.90;5.97;;;1.70;99.90;;;;;;5041871;28;20415;-91
2022/01/15 05:22:37;;;;;;;10.33;2.83;;;1.80;99.90;;;;;;5060064;28;20404;-88
2022/01/15 05:25:04;;;;;;;8.93;3.03;;;1.70;99.90;;;;;;5060382;28;20544;-84
2022/01/15 05:27:29;;;;;;;7.07;2.40;;;1.80;99.90;;;;;;5041277;28;20965;-93
2022/01/15 05:29:55;;;;;;;5.70;1.90;;;1.80;99.90;;;;;;5045789;28;20422;-90
2022/01/15 05:32:23;;;;;;;8.63;3.40;;;2.00;99.90;;;;;;5072646;28;20197;-92
2022/01/15 05:34:52;;;;;;;7.30;3.70;;;2.20;99.90;;;;;;5070293;28;20186;-91
2022/01/15 05:37:18;;;;;;;11.60;3.90;;;2.20;99.90;;;;;;5061431;28;20448;-89
2022/01/15 05:39:43;;;;;;;12.97;3.90;;;2.30;99.90;;;;;;5057467;28;20507;-92
2022/01/15 05:42:09;;;;;;;9.33;2.97;;;2.30;99.90;;;;;;5060263;28;20197;-94
2022/01/15 05:44:35;;;;;;;15.57;3.80;;;2.20;99.90;;;;;;5061423;28;20186;-93
2022/01/15 05:47:01;;;;;;;10.83;3.00;;;2.20;99.90;;;;;;5077000;28;20173;-90
2022/01/15 05:49:26;;;;;;;12.17;3.97;;;2.20;99.90;;;;;;5077656;28;20420;-83
2022/01/15 05:51:52;;;;;;;10.87;4.20;;;2.20;99.90;;;;;;5060921;28;20461;-87
2022/01/15 05:54:18;;;;;;;10.60;2.77;;;2.20;99.90;;;;;;5078216;28;20172;-87
2022/01/15 05:56:43;;;;;;;10.60;3.60;;;2.20;99.90;;;;;;5071199;28;20189;-91
2022/01/15 05:59:09;;;;;;;8.47;3.70;;;2.20;99.90;;;;;;5059262;28;20177;-91
2022/01/15 06:01:36;;;;;;;10.50;3.13;;;2.30;99.90;;;;;;5057923;28;20173;-93
2022/01/15 06:04:03;;;;;;;10.93;4.23;;;2.20;99.90;;;;;;5057472;28;20447;-93
2022/01/15 06:06:29;;;;;;;9.20;3.20;;;2.20;99.90;;;;;;5056629;28;20467;-86
2022/01/15 06:08:54;;;;;;;7.03;3.10;;;2.10;99.90;;;;;;5059016;28;20413;-93
2022/01/15 06:11:21;;;;;;;9.10;4.23;;;2.00;99.90;;;;;;5060559;28;20170;-94
2022/01/15 06:13:47;;;;;;;15.00;3.90;;;2.00;99.90;;;;;;5061713;28;20275;-94
2022/01/15 06:16:14;;;;;;;7.80;3.97;;;2.10;99.90;;;;;;5060838;28;20417;-92
2022/01/15 06:18:40;;;;;;;7.63;4.50;;;2.20;99.90;;;;;;5060997;28;20442;-94
2022/01/15 06:21:08;;;;;;;9.47;4.27;;;2.20;99.90;;;;;;5042181;28;20455;-93
2022/01/15 06:23:34;;;;;;;10.80;3.40;;;2.10;99.90;;;;;;5037973;28;20187;-86
2022/01/15 06:26:00;;;;;;;8.40;3.50;;;2.10;99.90;;;;;;5037269;28;20997;-91
2022/01/15 06:28:26;;;;;;;12.83;4.23;;;2.10;99.90;;;;;;5037490;28;20186;-93
2022/01/15 06:30:51;;;;;;;6.43;3.40;;;2.10;99.90;;;;;;5035621;28;20201;-93
2022/01/15 06:33:17;;;;;;;9.30;3.50;;;2.10;99.90;;;;;;5017871;28;20190;-93
2022/01/15 06:35:43;;;;;;;11.67;3.67;;;2.00;99.90;;;;;;5035788;28;20174;-92
2022/01/15 06:38:08;;;;;;;11.47;5.40;;;2.10;99.90;;;;;;5055915;28;20217;-94
2022/01/15 06:40:34;;;;;;;13.97;3.23;;;2.10;99.90;;;;;;5056282;28;20271;-93
2022/01/15 06:43:00;;;;;;;4.20;2.83;;;2.10;99.90;;;;;;5056017;28;20214;-93
2022/01/15 06:45:27;;;;;;;8.00;3.10;;;2.00;99.90;;;;;;5055691;28;20528;-89
2022/01/15 06:47:53;;;;;;;8.37;4.90;;;2.10;99.90;;;;;;5055374;28;20420;-94
2022/01/15 06:50:19;;;;;;;11.97;4.83;;;2.10;99.90;;;;;;5055166;28;20402;-88
2022/01/15 06:52:45;;;;;;;9.83;3.77;;;2.00;99.90;;;;;;5055257;28;20183;-91
2022/01/15 06:55:14;;;;;;;7.10;3.50;;;2.00;99.90;;;;;;5037694;28;20416;-93
2022/01/15 06:57:39;;;;;;;13.27;3.93;;;2.00;99.90;;;;;;5055137;28;20175;-89
2022/01/15 07:00:07;;;;;;;10.40;3.87;;;2.00;99.90;;;;;;5055057;28;20784;-89
2022/01/15 07:02:33;;;;;;;12.40;3.87;;;2.00;99.90;;;;;;5055053;28;20726;-90
2022/01/15 07:04:58;;;;;;;7.83;3.67;;;2.00;99.90;;;;;;5037176;28;20551;-92
2022/01/15 07:07:24;;;;;;;8.40;3.80;;;2.10;99.90;;;;;;5055204;28;20211;-88
2022/01/15 07:09:49;;;;;;;11.30;3.27;;;2.10;99.90;;;;;;5055107;28;20624;-94
2022/01/15 07:12:15;;;;;;;7.23;3.23;;;2.10;99.90;;;;;;5037513;28;20174;-93
2022/01/15 07:14:40;;;;;;;13.20;3.23;;;2.00;99.90;;;;;;5055268;28;20198;-94
2022/01/15 07:17:06;;;;;;;8.33;3.43;;;2.10;99.90;;;;;;5054644;28;20250;-93
2022/01/15 07:19:32;;;;;;;4.73;2.20;;;2.10;99.90;;;;;;5037798;28;20540;-93
2022/01/15 07:21:58;;;;;;;15.87;4.17;;;2.10;99.90;;;;;;5055782;28;20174;-91
2022/01/15 07:24:23;;;;;;;9.70;4.10;;;2.10;99.90;;;;;;5055542;28;20225;-88
2022/01/15 07:26:49;;;;;;;9.57;3.90;;;2.20;99.90;;;;;;5055872;28;20468;-93
2022/01/15 07:29:16;;;;;;;7.33;3.17;;;2.10;99.90;;;;;;5055262;28;20182;-91
2022/01/15 07:31:45;;;;;;;5.03;2.07;;;2.10;99.90;;;;;;5038655;28;20180;-87
2022/01/15 07:34:12;;;;;;;8.40;3.67;;;2.00;99.90;;;;;;5055470;28;20561;-94
2022/01/15 07:36:38;;;;;;;10.00;4.53;;;2.00;99.90;;;;;;5054194;28;20464;-87
2022/01/15 07:39:05;;;;;;;14.33;4.67;;;1.90;99.90;;;;;;5036887;28;20431;-93
2022/01/15 07:41:34;;;;;;;11.20;4.30;;;2.00;99.90;;;;;;5054565;28;20448;-92
2022/01/15 07:44:00;;;;;;;10.53;3.50;;;2.00;99.90;;;;;;5054399;28;20427;-94
2022/01/15 07:46:26;;;;;;;10.83;2.93;;;2.00;99.90;;;;;;5053742;28;20477;-93
2022/01/15 07:48:51;;;;;;;9.30;3.30;;;2.00;99.90;;;;;;5054477;28;20654;-91
2022/01/15 07:51:17;;;;;;;9.57;4.23;;;2.00;99.90;;;;;;5054306;28;20468;-93
2022/01/15 07:53:43;;;;;;;10.50;3.20;;;2.00;99.90;;;;;;5054253;28;20171;-92
2022/01/15 07:56:08;;;;;;;13.70;5.37;;;2.00;99.90;;;;;;5055269;28;20178;-88
2022/01/15 07:58:34;;;;;;;7.40;4.33;;;2.00;99.90;;;;;;5055426;28;20181;-90
2022/01/15 08:01:00;;;;;;;8.37;4.87;;;2.10;99.90;;;;;;5055527;28;20315;-94
2022/01/15 08:03:25;;;;;;;7.53;3.87;;;2.20;99.90;;;;;;5054581;28;20176;-91
2022/01/15 08:05:53;;;;;;;6.90;3.60;;;2.20;99.90;;;;;;5054251;28;20504;-94
2022/01/15 08:08:19;;;;;;;9.00;4.17;;;2.20;99.90;;;;;;5054277;28;20630;-95
2022/01/15 08:10:44;;;;;;;13.10;4.07;;;2.30;99.90;;;;;;5054256;28;20435;-87
2022/01/15 08:13:11;;;;;;;8.83;3.53;;;2.40;99.90;;;;;;5054568;28;20568;-94
2022/01/15 08:15:37;;;;;;;13.83;5.43;;;2.40;99.90;;;;;;5053703;28;20189;-94
2022/01/15 08:18:05;;;;;;;10.30;3.70;;;2.40;99.90;;;;;;5053986;28;20416;-90
2022/01/15 08:20:31;;;;;;;11.83;3.93;;;2.40;99.90;;;;;;5054642;28;20224;-93
2022/01/15 08:22:57;;;;;;;8.53;3.37;;;2.40;99.90;;;;;;5053894;28;20410;-89
2022/01/15 08:25:24;;;;;;;12.77;5.20;;;2.40;99.90;;;;;;5054437;28;20201;-89
2022/01/15 08:27:52;;;;;;;7.00;4.17;;;2.60;99.90;;;;;;5054657;28;20177;-95
2022/01/15 08:30:18;;;;;;;7.20;3.90;;;2.70;99.90;;;;;;5054507;28;20417;-94
2022/01/15 08:32:43;;;;;;;7.60;4.13;;;2.70;99.90;;;;;;5054701;28;20445;-91
2022/01/15 08:35:09;;;;;;;11.97;4.90;;;2.80;99.90;;;;;;5040185;28;20173;-87
2022/01/15 08:37:39;;;;;;;16.17;4.57;;;3.00;99.90;;;;;;5040779;28;20240;-93
2022/01/15 08:40:09;;;;;;;11.47;4.03;;;3.00;99.90;;;;;;5057625;28;20243;-91
2022/01/15 08:42:39;;;;;;;11.00;5.47;;;3.00;99.90;;;;;;5040052;28;20437;-92
2022/01/15 08:45:06;;;;;;;8.97;4.50;;;2.90;99.90;;;;;;5057515;28;20483;-92
2022/01/15 08:47:32;;;;;;;12.20;4.27;;;2.90;99.90;;;;;;5057302;28;20412;-92
2022/01/15 08:49:57;;;;;;;12.23;5.37;;;3.20;99.90;;;;;;5057425;28;20431;-92
2022/01/15 08:52:23;;;;;;;7.03;3.83;;;3.40;99.90;;;;;;5057800;28;20224;-90
2022/01/15 08:54:49;;;;;;;12.03;5.93;;;3.40;99.90;;;;;;5040045;28;20169;-93
2022/01/15 08:57:15;;;;;;;8.43;5.20;;;3.30;99.90;;;;;;5057935;28;20173;-93
2022/01/15 08:59:41;;;;;;;10.40;5.23;;;3.30;99.90;;;;;;5057678;28;20408;-93
2022/01/15 09:02:07;;;;;;;8.77;4.20;;;3.40;99.90;;;;;;5057531;28;20173;-92
2022/01/15 09:04:35;;;;;;;9.77;3.77;;;3.30;99.90;;;;;;5057401;28;20434;-93
2022/01/15 09:07:01;;;;;;;9.73;3.87;;;3.50;99.90;;;;;;5057550;28;20240;-92
2022/01/15 09:09:27;;;;;;;11.50;4.80;;;3.80;99.90;;;;;;5057578;28;20439;-91
2022/01/15 09:11:55;;;;;;;8.53;4.07;;;3.90;99.90;;;;;;5057799;28;20182;-94
2022/01/15 09:14:21;;;;;;;6.10;3.07;;;3.90;99.90;;;;;;5057579;28;20169;-94
2022/01/15 09:16:46;;;;;;;5.90;3.17;;;4.00;99.90;;;;;;5057829;28;20413;-93
2022/01/15 09:19:12;;;;;;;11.67;4.30;;;4.10;99.90;;;;;;5055907;28;20203;-93
2022/01/15 09:21:37;;;;;;;6.93;2.87;;;4.30;99.90;;;;;;5057680;28;20200;-93
2022/01/15 09:24:03;;;;;;;9.77;3.80;;;4.90;99.90;;;;;;5038557;28;20264;-93
2022/01/15 09:30:12;;;;;;;6.23;3.27;;;5.00;99.90;;;;;;5053880;28;20202;-94
2022/01/15 09:32:07;;;;;;;6.20;2.97;;;4.50;99.90;;;;;;5050920;28;20814;-91
2022/01/15 09:34:34;;;;;;;7.93;3.50;;;4.70;99.90;;;;;;5043655;28;20544;-90
2022/01/15 09:37:00;;;;;;;6.93;3.10;;;4.80;99.90;;;;;;5037566;28;21088;-93
2022/01/15 09:39:26;;;;;;;7.37;3.17;;;5.00;99.90;;;;;;5040129;28;20421;-93
2022/01/15 09:41:54;;;;;;;7.30;2.90;;;5.30;99.90;;;;;;5047991;28;20872;-92
2022/01/15 09:44:24;;;;;;;5.60;3.83;;;5.40;99.90;;;;;;5048780;28;20170;-92
2022/01/15 09:46:50;;;;;;;7.10;3.00;;;5.30;99.90;;;;;;5020731;28;20911;-93
2022/01/15 09:49:22;;;;;;;7.10;3.17;;;5.50;99.90;;;;;;5057112;28;20407;-87
2022/01/15 09:51:48;;;;;;;7.60;2.87;;;5.90;99.90;;;;;;5056909;28;20407;-90
2022/01/15 09:54:15;;;;;;;5.83;1.90;;;5.60;99.90;;;;;;5039450;28;20791;-92
2022/01/15 09:56:40;;;;;;;6.97;2.60;;;5.40;99.90;;;;;;5056704;28;20478;-90
2022/01/15 09:59:09;;;;;;;4.17;2.03;;;5.40;99.90;;;;;;5057301;28;20412;-90
2022/01/15 10:01:35;;;;;;;5.20;2.40;;;5.20;99.90;;;;;;5057387;28;20210;-91
2022/01/15 10:04:03;;;;;;;5.20;3.00;;;5.10;99.90;;;;;;5056886;28;20423;-93
2022/01/15 10:06:29;;;;;;;5.73;2.70;;;5.00;99.90;;;;;;5056641;28;20250;-85
2022/01/15 10:09:03;;;;;;;8.90;3.47;;;5.00;99.90;;;;;;5056413;28;20450;-91
2022/01/15 10:11:48;;;;;;;6.50;3.23;;;5.00;99.90;;;;;;5056505;28;20174;-89
2022/01/15 10:14:28;;;;;;;4.77;2.63;;;5.20;99.90;;;;;;5056396;28;20407;-89
2022/01/15 10:16:55;;;;;;;5.60;3.67;;;5.30;99.90;;;;;;5038212;28;20424;-89
2022/01/15 10:19:33;;;;;;;7.37;3.20;;;5.10;99.90;;;;;;5056422;28;20418;-90
2022/01/15 10:22:19;;;;;;;6.70;3.60;;;5.00;99.90;;;;;;5056157;28;20427;-94
2022/01/15 10:25:07;;;;;;;6.23;2.47;;;5.00;99.90;;;;;;5056410;28;20411;-92
2022/01/15 10:27:41;;;;;;;5.07;2.10;;;5.10;99.90;;;;;;5056364;28;20434;-93
2022/01/15 10:30:15;;;;;;;5.97;3.00;;;5.10;99.90;;;;;;5056720;28;20549;-92
2022/01/15 10:33:05;;;;;;;4.67;1.97;;;5.20;99.90;;;;;;5056419;28;20413;-94
2022/01/15 10:35:36;;;;;;;11.77;3.23;;;5.20;99.90;;;;;;5055688;28;21016;-91
2022/01/15 10:38:13;;;;;;;6.10;2.87;;;5.40;99.90;;;;;;5056071;28;20465;-93
2022/01/15 10:40:44;;;;;;;9.27;4.20;;;5.60;99.90;;;;;;5056006;28;20409;-93
2022/01/15 10:43:11;;;;;;;9.60;4.23;;;5.70;99.90;;;;;;5056130;28;20414;-93
2022/01/15 10:45:52;;;;;;;9.63;4.00;;;5.70;99.90;;;;;;5055277;28;20457;-93
2022/01/15 10:48:32;;;;;;;7.03;3.40;;;5.90;99.90;;;;;;5055618;28;20438;-93
2022/01/15 10:51:05;;;;;;;8.20;3.70;;;5.80;99.90;;;;;;5055702;28;20445;-92
2022/01/15 10:53:43;;;;;;;8.60;2.60;;;6.10;99.90;;;;;;5055402;28;20839;-94
2022/01/15 10:56:12;;;;;;;6.30;2.73;;;6.20;99.90;;;;;;5055470;28;20501;-87
2022/01/15 10:58:38;;;;;;;5.77;2.20;;;6.00;99.90;;;;;;5054316;28;20424;-84
2022/01/15 11:01:04;;;;;;;5.90;3.37;;;6.00;99.90;;;;;;5054265;28;21034;-91
2022/01/15 11:03:41;;;;;;;8.00;3.10;;;5.90;99.90;;;;;;5054250;28;20480;-84
2022/01/15 11:06:07;;;;;;;10.07;3.43;;;6.00;99.90;;;;;;5047964;28;20475;-90
2022/01/15 11:08:37;;;;;;;7.17;4.00;;;6.20;99.90;;;;;;5055120;28;20437;-93
2022/01/15 11:11:08;;;;;;;6.97;4.90;;;6.30;99.90;;;;;;5055012;28;20471;-92
2022/01/15 11:13:36;;;;;;;8.60;3.73;;;6.30;99.90;;;;;;5037065;28;20895;-94
2022/01/15 11:16:07;;;;;;;7.40;3.50;;;6.60;99.90;;;;;;5054596;28;20457;-89
2022/01/15 11:18:35;;;;;;;6.43;3.00;;;7.00;99.90;;;;;;5054571;28;20457;-92
2022/01/15 11:21:10;;;;;;;7.03;3.23;;;7.50;99.90;;;;;;5054712;28;20778;-84
2022/01/15 11:23:38;;;;;;;7.07;4.00;;;7.70;99.90;;;;;;5052392;28;20985;-92
2022/01/15 11:26:12;;;;;;;6.50;3.27;;;7.70;99.90;;;;;;5053879;28;20477;-88
2022/01/15 11:28:38;;;;;;;6.90;3.53;;;7.50;99.90;;;;;;5054289;28;20402;-88
2022/01/15 11:31:08;;;;;;;9.60;3.93;;;7.70;99.90;;;;;;5054065;28;20405;-92
2022/01/15 11:33:37;;;;;;;8.73;3.73;;;7.70;99.90;;;;;;5054138;28;20478;-86
2022/01/15 11:36:05;;;;;;;8.93;3.47;;;7.90;99.90;;;;;;5033882;28;20440;-83
2022/01/15 11:38:33;;;;;;;6.90;3.73;;;7.90;99.90;;;;;;5034079;28;20427;-86
2022/01/15 11:40:59;;;;;;;8.47;3.60;;;8.30;99.90;;;;;;5034138;28;20404;-84
2022/01/15 11:43:24;;;;;;;8.67;3.37;;;7.80;99.90;;;;;;5033836;28;20417;-89
2022/01/15 11:45:55;;;;;;;6.60;3.50;;;7.90;99.90;;;;;;5034503;28;20221;-89
2022/01/15 11:48:23;;;;;;;9.03;3.57;;;8.20;99.90;;;;;;5034737;28;20174;-84
2022/01/15 11:51:14;;;;;;;7.53;3.40;;;8.50;99.90;;;;;;5045061;28;20440;-88
2022/01/15 11:53:47;;;;;;;10.33;3.60;;;8.40;99.90;;;;;;5047605;28;20417;-83
2022/01/15 11:56:18;;;;;;;10.70;3.83;;;9.00;99.90;;;;;;5046179;28;20436;-82
2022/01/15 11:58:43;;;;;;;9.30;4.10;;;8.40;99.90;;;;;;5045271;28;20417;-83
2022/01/15 12:01:42;;;;;;;6.30;4.50;;;8.10;99.90;;;;;;5040677;28;20412;-89
2022/01/15 12:04:36;;;;;;;8.10;4.07;;;7.80;99.90;;;;;;5034085;28;20253;-84
2022/01/15 12:07:04;;;;;;;7.23;3.40;;;8.00;99.90;;;;;;5033550;28;20474;-87
2022/01/15 12:09:34;;;;;;;7.97;4.43;;;8.10;99.90;;;;;;5033098;28;20411;-92
2022/01/15 12:12:05;;;;;;;7.27;4.27;;;8.20;99.90;;;;;;5033565;28;20495;-93
2022/01/15 12:15:05;;;;;;;7.30;4.40;;;7.80;99.90;;;;;;5052179;28;20413;-88
2022/01/15 12:17:47;;;;;;;8.00;4.13;;;7.30;99.90;;;;;;5053374;28;20416;-85
2022/01/15 12:20:18;;;;;;;8.70;3.27;;;7.30;99.90;;;;;;5054053;28;20515;-87
2022/01/15 12:22:49;;;;;;;11.93;3.87;;;7.20;99.90;;;;;;5053837;28;20421;-86
2022/01/15 12:25:17;;;;;;;7.53;3.50;;;7.20;99.90;;;;;;5053727;28;20469;-88
2022/01/15 12:28:03;;;;;;;6.43;2.87;;;7.20;99.90;;;;;;5053734;28;20411;-88
2022/01/15 12:30:37;;;;;;;9.30;3.40;;;7.20;99.90;;;;;;5053824;28;20496;-89
2022/01/15 12:33:05;;;;;;;11.27;3.67;;;7.20;99.90;;;;;;5054063;28;20424;-91
2022/01/15 12:35:37;;;;;;;7.33;3.40;;;7.20;99.90;;;;;;5054590;28;20404;-85
2022/01/15 12:38:05;;;;;;;8.17;3.53;;;7.20;99.90;;;;;;5053922;28;20515;-92
2022/01/15 12:40:37;;;;;;;6.97;2.70;;;7.10;99.90;;;;;;5041068;28;20448;-93
2022/01/15 12:43:11;;;;;;;8.20;3.00;;;6.90;99.90;;;;;;5055063;28;20440;-90
2022/01/15 12:45:38;;;;;;;7.67;3.17;;;6.90;99.90;;;;;;5053024;28;20449;-93
2022/01/15 12:48:07;;;;;;;9.33;4.70;;;6.90;99.90;;;;;;5053795;28;20435;-88
2022/01/15 12:50:48;;;;;;;10.00;3.90;;;6.90;99.90;;;;;;5053397;28;20402;-88
2022/01/15 12:53:15;;;;;;;7.70;3.07;;;6.80;99.90;;;;;;5053757;28;20418;-90
2022/01/15 12:55:40;;;;;;;9.37;4.23;;;6.70;99.90;;;;;;5035900;28;20506;-90
2022/01/15 12:58:08;;;;;;;7.77;3.00;;;6.60;99.90;;;;;;5053469;28;20494;-87
2022/01/15 13:00:38;;;;;;;12.30;4.40;;;6.50;99.90;;;;;;5030508;28;20283;-86
2022/01/15 13:03:07;;;;;;;8.10;4.43;;;6.50;99.90;;;;;;5033609;28;20501;-90
2022/01/15 13:05:39;;;;;;;7.73;3.10;;;6.50;99.90;;;;;;5035558;28;20466;-84
2022/01/15 13:08:11;;;;;;;12.67;3.20;;;6.40;99.90;;;;;;5035488;28;20491;-89
2022/01/15 13:10:51;;;;;;;11.03;3.00;;;6.40;99.90;;;;;;5035133;28;20476;-87
2022/01/15 13:13:18;;;;;;;8.83;4.40;;;6.50;99.90;;;;;;5053252;28;20413;-87